createdAt,value
2023-04-05T00:00:27.920Z,-2.34
2023-04-05T00:05:30.051Z,-2.36
2023-04-05T00:10:22.945Z,-2.35
2023-04-05T00:15:16.252Z,-2.38
2023-04-05T00:20:11.291Z,-2.39
2023-04-05T00:25:04.696Z,-2.39
2023-04-05T00:29:57.516Z,-2.43
2023-04-05T00:34:52.141Z,-2.46
2023-04-05T00:39:45.303Z,-2.49
2023-04-05T00:44:38.370Z,-2.53
2023-04-05T00:49:32.158Z,-2.56
2023-04-05T00:54:28.642Z,-2.65
2023-04-05T00:59:21.564Z,-2.72
2023-04-05T01:04:21.819Z,-2.74
2023-04-05T01:09:36.783Z,-2.74
2023-04-05T01:14:30.279Z,-2.80
2023-04-05T01:19:23.260Z,-2.87
2023-04-05T01:24:46.985Z,-2.96
2023-04-05T01:29:52.761Z,-3.02
2023-04-05T01:34:48.321Z,-3.05
2023-04-05T01:39:41.817Z,-3.12
2023-04-05T01:44:34.639Z,-3.19
2023-04-05T01:49:27.653Z,-3.27
2023-04-05T01:54:20.487Z,-3.33
2023-04-05T01:59:13.417Z,-3.37
2023-04-05T02:04:06.228Z,-3.40
2023-04-05T02:08:59.734Z,-3.49
2023-04-05T02:13:52.526Z,-3.59
2023-04-05T02:18:50.985Z,-3.64
2023-04-05T02:23:44.044Z,-3.71
2023-04-05T02:28:37.204Z,-3.77
2023-04-05T02:33:30.017Z,-3.78
2023-04-05T02:38:22.860Z,-3.83
2023-04-05T02:43:15.646Z,-3.91
2023-04-05T02:48:08.662Z,-3.95
2023-04-05T02:53:01.567Z,-3.97
2023-04-05T02:58:01.158Z,-3.99
2023-04-05T03:02:59.160Z,-4.04
2023-04-05T03:07:52.887Z,-4.13
2023-04-05T03:12:48.605Z,-4.22
2023-04-05T03:17:44.332Z,-4.24
2023-04-05T03:22:37.808Z,-4.29
2023-04-05T03:27:32.086Z,-4.35
2023-04-05T03:32:31.793Z,-4.43
2023-04-05T03:37:30.243Z,-4.46
2023-04-05T03:42:28.492Z,-4.55
2023-04-05T03:47:22.854Z,-4.59
2023-04-05T03:52:16.534Z,-4.62
2023-04-05T03:57:10.726Z,-4.66
2023-04-05T04:02:04.573Z,-4.66
2023-04-05T04:06:58.271Z,-4.62
2023-04-05T04:11:52.976Z,-4.52
2023-04-05T04:16:47.662Z,-4.46
2023-04-05T04:22:10.317Z,-4.36
2023-04-05T04:27:23.563Z,-4.20
2023-04-05T04:32:52.108Z,-4.03
2023-04-05T04:38:08.566Z,-3.86
2023-04-05T04:43:18.298Z,-3.65
2023-04-05T04:48:28.468Z,-3.45
2023-04-05T04:53:37.210Z,-3.29
2023-04-05T04:58:30.288Z,-3.11
2023-04-05T05:03:32.332Z,-2.96
2023-04-05T05:08:25.294Z,-2.81
2023-04-05T05:13:18.071Z,-2.65
2023-04-05T05:18:12.469Z,-2.48
2023-04-05T05:23:05.590Z,-2.29
2023-04-05T05:27:58.563Z,-2.08
2023-04-05T05:32:53.023Z,-1.87
2023-04-05T05:37:45.918Z,-1.67
2023-04-05T05:42:38.802Z,-1.45
2023-04-05T05:47:31.606Z,-1.31
2023-04-05T05:52:24.734Z,-1.17
2023-04-05T05:57:17.807Z,-1.01
2023-04-05T06:02:12.101Z,-0.91
2023-04-05T06:07:05.011Z,-0.75
2023-04-05T06:11:58.575Z,-0.59
2023-04-05T06:16:51.388Z,-0.45
2023-04-05T06:21:44.160Z,-0.29
2023-04-05T06:26:36.996Z,-0.10
2023-04-05T06:31:35.799Z,0.11
2023-04-05T06:36:31.720Z,0.34
2023-04-05T06:41:24.749Z,0.49
2023-04-05T06:46:17.592Z,0.62
2023-04-05T06:51:10.566Z,0.70
2023-04-05T06:56:04.040Z,0.80
2023-04-05T07:00:56.877Z,0.93
2023-04-05T07:05:55.102Z,1.04
2023-04-05T07:10:49.521Z,1.20
2023-04-05T07:15:42.518Z,1.35
2023-04-05T07:20:35.326Z,1.46
2023-04-05T07:25:28.221Z,1.56
2023-04-05T07:30:22.193Z,1.64
2023-04-05T07:35:15.472Z,1.81
2023-04-05T07:40:11.163Z,1.95
2023-04-05T07:45:04.417Z,2.13
2023-04-05T07:49:59.535Z,2.31
2023-04-05T07:54:52.352Z,2.47
2023-04-05T07:59:45.704Z,2.54
2023-04-05T08:04:38.588Z,2.71
2023-04-05T08:09:31.370Z,2.85
2023-04-05T08:14:24.720Z,2.88
2023-04-05T08:19:18.035Z,3.04
2023-04-05T08:24:11.036Z,3.16
2023-04-05T08:29:03.830Z,3.33
2023-04-05T08:33:56.646Z,3.47
2023-04-05T08:38:49.426Z,3.53
2023-04-05T08:43:53.047Z,3.61
2023-04-05T08:48:46.597Z,3.65
2023-04-05T08:53:40.016Z,3.68
2023-04-05T08:58:35.591Z,3.58
2023-04-05T09:03:36.568Z,3.40
2023-04-05T09:08:29.754Z,3.15
2023-04-05T09:13:22.997Z,2.94
2023-04-05T09:18:26.778Z,2.91
2023-04-05T09:23:22.159Z,2.90
2023-04-05T09:28:15.067Z,2.84
2023-04-05T09:33:11.012Z,2.83
2023-04-05T09:38:06.276Z,2.81
2023-04-05T09:43:01.584Z,2.77
2023-04-05T09:47:58.786Z,2.85
2023-04-05T09:52:52.642Z,2.99
2023-04-05T09:57:46.942Z,3.07
2023-04-05T10:02:41.412Z,3.21
2023-04-05T10:07:35.905Z,3.42
2023-04-05T10:12:29.586Z,3.61
2023-04-05T10:17:29.552Z,3.80
2023-04-05T10:22:31.338Z,3.89
2023-04-05T10:27:54.839Z,4.03
2023-04-05T10:33:09.502Z,4.14
2023-04-05T10:38:13.308Z,4.27
2023-04-05T10:43:15.371Z,4.31
2023-04-05T10:48:31.499Z,4.39
2023-04-05T10:53:26.810Z,4.46
2023-04-05T10:58:20.729Z,4.44
2023-04-05T11:03:45.716Z,4.35
2023-04-05T11:08:44.259Z,4.29
2023-04-05T11:13:57.380Z,4.53
2023-04-05T11:18:54.234Z,4.86
2023-04-05T11:24:02.602Z,5.45
2023-04-05T11:28:59.353Z,6.23
2023-04-05T11:33:57.693Z,6.15
2023-04-05T11:39:20.370Z,5.69
2023-04-05T11:44:17.391Z,5.32
2023-04-05T11:49:11.032Z,4.95
2023-04-05T11:54:03.929Z,4.64
2023-04-05T11:59:00.472Z,4.49
2023-04-05T12:03:57.886Z,4.38
2023-04-05T12:08:51.467Z,4.22
2023-04-05T12:13:46.704Z,4.24
2023-04-05T12:18:39.946Z,4.27
2023-04-05T12:23:33.423Z,4.25
2023-04-05T12:28:27.018Z,4.27
2023-04-05T12:33:35.622Z,4.29
2023-04-05T12:38:28.842Z,4.33
2023-04-05T12:43:22.000Z,4.29
2023-04-05T12:48:16.310Z,4.29
2023-04-05T12:53:09.130Z,4.29
2023-04-05T12:58:03.844Z,4.29
2023-04-05T13:02:58.673Z,4.28
2023-04-05T13:07:52.053Z,4.25
2023-04-05T13:12:45.035Z,4.24
2023-04-05T13:17:38.228Z,4.28
2023-04-05T13:22:51.348Z,4.74
2023-04-05T13:27:46.976Z,5.24
2023-04-05T13:32:39.839Z,5.49
2023-04-05T13:37:33.105Z,5.59
2023-04-05T13:42:26.156Z,5.42
2023-04-05T13:47:20.162Z,5.13
2023-04-05T13:52:13.631Z,4.83
2023-04-05T13:57:06.535Z,4.69
2023-04-05T14:01:59.384Z,4.59
2023-04-05T14:06:52.270Z,4.49
2023-04-05T14:11:45.377Z,4.49
2023-04-05T14:16:38.277Z,4.51
2023-04-05T14:21:31.971Z,4.70
2023-04-05T14:26:26.883Z,4.80
2023-04-05T14:31:19.774Z,4.79
2023-04-05T14:36:12.695Z,4.77
2023-04-05T14:41:08.779Z,4.65
2023-04-05T14:46:02.448Z,4.58
2023-04-05T14:50:55.556Z,4.48
2023-04-05T14:55:48.443Z,4.35
2023-04-05T15:00:41.450Z,4.26
2023-04-05T15:05:34.541Z,4.19
2023-04-05T15:10:27.565Z,4.19
2023-04-05T15:15:20.430Z,4.19
2023-04-05T15:20:15.093Z,4.12
2023-04-05T15:25:11.674Z,4.09
2023-04-05T15:30:04.760Z,4.03
2023-04-05T15:34:58.120Z,3.97
2023-04-05T15:39:50.897Z,3.93
2023-04-05T15:44:44.137Z,3.88
2023-04-05T15:49:36.901Z,3.85
2023-04-05T15:54:29.827Z,3.80
2023-04-05T15:59:22.751Z,3.74
2023-04-05T16:04:15.933Z,3.68
2023-04-05T16:09:08.939Z,3.64
2023-04-05T16:14:02.023Z,3.61
2023-04-05T16:18:54.958Z,3.54
2023-04-05T16:23:47.956Z,3.46
2023-04-05T16:28:42.670Z,3.38
2023-04-05T16:33:35.606Z,3.30
2023-04-05T16:38:28.436Z,3.22
2023-04-05T16:43:21.288Z,3.12
2023-04-05T16:48:15.241Z,3.03
2023-04-05T16:53:08.086Z,2.96
2023-04-05T16:58:01.198Z,2.90
2023-04-05T17:02:54.729Z,2.86
2023-04-05T17:07:47.978Z,2.78
2023-04-05T17:12:42.300Z,2.70
2023-04-05T17:17:37.292Z,2.69
2023-04-05T17:22:31.665Z,2.65
2023-04-05T17:27:26.017Z,2.61
2023-04-05T17:32:19.044Z,2.56
2023-04-05T17:37:11.875Z,2.52
2023-04-05T17:42:04.732Z,2.51
2023-04-05T17:47:08.639Z,2.48
2023-04-05T17:52:02.591Z,2.45
2023-04-05T17:56:56.565Z,2.44
2023-04-05T18:01:53.845Z,2.41
2023-04-05T18:06:46.860Z,2.34
2023-04-05T18:11:41.252Z,2.23
2023-04-05T18:16:34.742Z,2.12
2023-04-05T18:21:31.329Z,2.01
2023-04-05T18:26:24.742Z,1.89
2023-04-05T18:31:17.805Z,1.77
2023-04-05T18:36:12.821Z,1.70
2023-04-05T18:41:07.305Z,1.66
2023-04-05T18:46:00.176Z,1.64
2023-04-05T18:50:54.179Z,1.62
2023-04-05T18:55:47.166Z,1.60
2023-04-05T19:00:39.932Z,1.57
2023-04-05T19:05:33.140Z,1.58
2023-04-05T19:10:45.318Z,1.57
2023-04-05T19:15:42.673Z,1.59
2023-04-05T19:20:35.564Z,1.61
2023-04-05T19:25:31.003Z,1.62
2023-04-05T19:30:24.032Z,1.61
2023-04-05T19:35:17.162Z,1.61
2023-04-05T19:40:12.365Z,1.62
2023-04-05T19:45:09.395Z,1.62
2023-04-05T19:50:02.236Z,1.59
2023-04-05T19:54:55.397Z,1.54
2023-04-05T19:59:48.552Z,1.50
2023-04-05T20:04:43.474Z,1.48
2023-04-05T20:09:41.201Z,1.45
2023-04-05T20:14:45.989Z,1.40
2023-04-05T20:19:41.606Z,1.36
2023-04-05T20:24:34.755Z,1.38
2023-04-05T20:29:32.370Z,1.43
2023-04-05T20:34:25.100Z,1.44
2023-04-05T20:39:20.317Z,1.42
2023-04-05T20:44:13.376Z,1.38
2023-04-05T20:49:06.992Z,1.35
2023-04-05T20:54:00.183Z,1.28
2023-04-05T20:58:54.692Z,1.27
2023-04-05T21:03:47.719Z,1.26
2023-04-05T21:08:41.752Z,1.22
2023-04-05T21:13:36.001Z,1.20
2023-04-05T21:18:28.794Z,1.20
2023-04-05T21:23:27.068Z,1.18
2023-04-05T21:28:20.093Z,1.14
2023-04-05T21:33:13.677Z,1.08
2023-04-05T21:38:07.251Z,1.04
2023-04-05T21:43:22.980Z,1.04
2023-04-05T21:48:26.682Z,1.04
2023-04-05T21:53:27.888Z,1.01
2023-04-05T22:05:25.704Z,1.03
2023-04-05T22:10:59.505Z,1.03
2023-04-05T22:16:16.329Z,1.02
2023-04-05T22:21:26.718Z,0.98
2023-04-05T22:26:23.762Z,0.98
2023-04-05T22:31:17.809Z,0.98
2023-04-05T22:36:29.118Z,0.99
2023-04-05T22:41:22.139Z,0.97
2023-04-05T22:46:18.556Z,0.96
2023-04-05T22:51:36.205Z,0.96
2023-04-05T22:56:37.421Z,0.98
2023-04-05T23:02:02.675Z,0.98
2023-04-05T23:07:18.341Z,0.99
2023-04-05T23:12:12.720Z,0.96
2023-04-05T23:17:05.577Z,0.95
2023-04-05T23:21:59.997Z,0.97
2023-04-05T23:26:53.128Z,0.98
2023-04-05T23:31:48.233Z,0.98
2023-04-05T23:36:41.454Z,0.99
2023-04-05T23:41:34.257Z,1.00
2023-04-05T23:46:27.198Z,0.98
2023-04-05T23:51:20.337Z,0.97
2023-04-05T23:56:17.949Z,0.98
